Aérodrome :
LOGIN :

S'inscrire | Disclaimer

   EN    FR    IT 

 










Légende :    VFR   VFR Marginal   IFR   IFR Intensif   IFR Très Intensif
Visi : 
Plafond : 
>= 8 km
>= 3000ft
5 à 8 km
1000 à 3000 ft
1500m à 5 km
500 à 1000 ft
800 à 1500m
200 à 500 ft
< 800m
< 200 ft
Symboles :   Orages  Brouillard  Fortes neiges  Fortes précipitations  Vent > 20 kt
SIGMETs :   Divers  Orages  Givrage  Turbulence  Onde Orograph.  Cendres Volcan.






- Altitude de l'aérodrome : 1090 ft
- Code IATA : CFE


LFLC - Clermont-Ferrand Auvergne

DERNIER METAR :
  • 212030Z AUTO 18006KT CAVOK 10/06 Q1016 TEMPO FEW040TCU BKN050

METARs EXPIRÉS :
  • 212000Z AUTO 16005KT CAVOK 10/06 Q1016 TEMPO FEW040TCU BKN050
  • 211930Z AUTO 16004KT 110V190 CAVOK 11/06 Q1016 TEMPO FEW040TCU BKN050
  • 211900Z AUTO VRB03KT CAVOK 11/06 Q1015 TEMPO FEW040TCU BKN050
  • 211830Z AUTO 18008KT 150V210 CAVOK 12/07 Q1015 TEMPO FEW040TCU BKN050
  • 211800Z AUTO 18005KT 140V210 CAVOK 12/07 Q1015 TEMPO FEW040TCU BKN050

TAF TAF LFLC
Valide du 21 à 18h jusqu'au 22 à 18h UTC


211700Z 2118/2218 16005KT 9999 BKN060
PROB30
TEMPO 2118/2124 -SHRA FEW040TCU BKN050
BECMG 2200/2203 NSC
PROB30
TEMPO 2200/2206 1500 MIFG
PROB40
TEMPO 2212/2218 BKN060
ATIS : +33 4 73 62 74 38



MET'MAP, la Météo Aéronautique d'un coup d'oeil ! - Copyright ORBIFLY Décembre 2007 - Disclaimer

ORBIFLY MET'MAP TEAM :

Programmation & Développement : Alexandra Zaïnal
Sur une idée originale de : Baudouin d'Aumeries
Assistance à la programmation : Marc-Olivier Méhu
Soutien technique & logistique : Manuel Goepfert

Contact : metmap@orbifly.com




SOURCES & CREDITS :

   NOAA